Huvudsida
METAR-TAF:

METAR-TAF

Flygplatser :

Reggio di Calabria, Italien

latitud: 38-04N, longitud: 015-39E, höjd: 11 m

Aktuellt väderrapport

Denna rapport gjordes för 1 timme och 12 minuter sedan, klockan 16:50 UTC
Vind 12 kt från nord/nordost
Temperatur 31°C
Fuktighet 38%
Tryck 1014 hPa
Sikt 10 km eller mer
Inga moln under 1 500 m eller inga cumulonimbus

METAR: LICR 231650Z 02012KT CAVOK 31/15 Q1014

Tid: 20:02 (18:02 UTC)

Väderprognos

Denna rapport gjordes för 1 timme och 2 minuter sedan, klockan 17:00 UTC
Prognos gäller från 23 kl. 18 UTC till 24 kl. 18 UTC
Vind 14 kt från nord
Sikt 10 km eller mer
Inga moln under 1 500 m eller inga cumulonimbus

TAF: LICR 231700Z 2318/2418 36014KT CAVOK

Aktuella väderrapporter och prognoser från 4000 flygplatser (METAR- och TAF-rapporter).

De tillgängliga stationerna syns som gula och röda prickar på kartan.

För musen över prickarna för att se namnen på stationerna.

Klicka sedan för att få väderrapporter och prognoser.

För att ändra kartan: Klicka på de gröna knapparna med ett svart kors på för att zooma in; den gröna knappen med ett streck på för att zooma ut; eller på de gröna pilarna för angränsande kartor.


METAR-TAF: